PWSweather.com
Personal Weather Stations
Station Observations
UXOLA
Alcoy, AlcoyES

AlcoyAlcoyES

Lat: 38.70299, Lon: -0.48184

Elevation: 1935

Station Type: PCE FWS-20,

http://www.fiestasalcoy.xyz

High Low Average
Temperature 63.0°F17.2°C 46.0°F7.8°C 52.6°F11.4°C
Dew Point 47.8°F8.8°C 37.9°F3.3°C 42.8°F6.0°C
Winds 4.5 mph 7.2 kmh Calm Calm 1.0 mph SSW1.6 kmh SSW
Wind Gusts 7.6 mph12.2 kmh 0.7 mph1.1 kmh 3.0 mph4.8 kmh
Humidity 76% 54% 70%
Pressure 30.06 in1017.9 mb 29.94 in1013.9 mb -
Precipitation 0.00 in0.0 mm - -
Hour Temp Dew Point Humidity Winds Wind Gusts Pressure Precip Precip Rate Daily Precip Total
12:00 AM 48.4°F9.1°C 39.4°F4.1°C 71% 1.6 mph SW2.6 kmh SW 3.1 mph5.0 kmh 30.06 in1017.9 mb 0.00 in0.0 mm 0.00 in0.0 mm 0.00 in0.0 mm
12:15 AM 48.2°F9.0°C 39.2°F4.0°C 71% 0.7 mph SW1.1 kmh SW 3.1 mph5.0 kmh 30.06 in1017.9 mb 0.00 in0.0 mm 0.00 in0.0 mm 0.00 in0.0 mm
12:30 AM 48.0°F8.9°C 39.1°F3.9°C 71% 1.6 mph SW2.6 kmh SW 3.1 mph5.0 kmh 30.06 in1017.9 mb 0.00 in0.0 mm 0.00 in0.0 mm 0.00 in0.0 mm
12:45 AM 47.8°F8.8°C 38.9°F3.8°C 71% Calm Calm 3.1 mph5.0 kmh 30.06 in1017.9 mb 0.00 in0.0 mm 0.00 in0.0 mm 0.00 in0.0 mm
01:00 AM 47.5°F8.6°C 38.9°F3.8°C 72% 0.7 mph SSW1.1 kmh SSW 2.2 mph3.5 kmh 30.06 in1017.9 mb 0.00 in0.0 mm 0.00 in0.0 mm 0.00 in0.0 mm
01:15 AM 47.1°F8.4°C 38.6°F3.7°C 72% 0.7 mph SW1.1 kmh SW 1.6 mph2.6 kmh 30.05 in1017.6 mb 0.00 in0.0 mm 0.00 in0.0 mm 0.00 in0.0 mm
01:30 AM 46.8°F8.2°C 38.2°F3.4°C 72% 0.7 mph SW1.1 kmh SW 2.2 mph3.5 kmh 30.05 in1017.6 mb 0.00 in0.0 mm 0.00 in0.0 mm 0.00 in0.0 mm
01:45 AM 46.8°F8.2°C 38.6°F3.7°C 73% 1.6 mph SW2.6 kmh SW 2.2 mph3.5 kmh 30.05 in1017.6 mb 0.00 in0.0 mm 0.00 in0.0 mm 0.00 in0.0 mm
02:00 AM 46.4°F8.0°C 38.2°F3.4°C 73% 0.7 mph SW1.1 kmh SW 1.6 mph2.6 kmh 30.05 in1017.6 mb 0.00 in0.0 mm 0.00 in0.0 mm 0.00 in0.0 mm
02:15 AM 46.2°F7.9°C 38.1°F3.4°C 73% 0.7 mph SW1.1 kmh SW 1.6 mph2.6 kmh 30.04 in1017.3 mb 0.00 in0.0 mm 0.00 in0.0 mm 0.00 in0.0 mm
02:30 AM 46.0°F7.8°C 37.9°F3.3°C 73% Calm Calm 1.6 mph2.6 kmh 30.04 in1017.3 mb 0.00 in0.0 mm 0.00 in0.0 mm 0.00 in0.0 mm
02:45 AM 46.0°F7.8°C 38.2°F3.4°C 74% Calm Calm 2.2 mph3.5 kmh 30.04 in1017.3 mb 0.00 in0.0 mm 0.00 in0.0 mm 0.00 in0.0 mm
03:00 AM 46.0°F7.8°C 38.2°F3.4°C 74% Calm Calm 1.6 mph2.6 kmh 30.04 in1017.3 mb 0.00 in0.0 mm 0.00 in0.0 mm 0.00 in0.0 mm
03:15 AM 46.2°F7.9°C 38.4°F3.6°C 74% Calm Calm 2.2 mph3.5 kmh 30.04 in1017.3 mb 0.00 in0.0 mm 0.00 in0.0 mm 0.00 in0.0 mm
03:30 AM 46.2°F7.9°C 38.4°F3.6°C 74% 1.6 mph SW2.6 kmh SW 2.2 mph3.5 kmh 30.03 in1016.9 mb 0.00 in0.0 mm 0.00 in0.0 mm 0.00 in0.0 mm
04:30 PM 63.0°F17.2°C 46.1°F7.8°C 54% 4.5 mph E7.2 kmh E 6.0 mph9.7 kmh 29.95 in1014.2 mb 0.00 in0.0 mm 0.00 in0.0 mm 0.00 in0.0 mm
04:45 PM 62.1°F16.7°C 45.7°F7.6°C 55% 1.6 mph ENE2.6 kmh ENE 7.6 mph12.2 kmh 29.94 in1013.9 mb 0.00 in0.0 mm 0.00 in0.0 mm 0.00 in0.0 mm
05:00 PM 61.3°F16.3°C 47.8°F8.8°C 61% 1.6 mph ENE2.6 kmh ENE 6.9 mph11.1 kmh 29.94 in1013.9 mb 0.00 in0.0 mm 0.00 in0.0 mm 0.00 in0.0 mm
05:15 PM 60.8°F16.0°C 47.3°F8.5°C 61% 2.2 mph ENE3.5 kmh ENE 4.5 mph7.2 kmh 29.95 in1014.2 mb 0.00 in0.0 mm 0.00 in0.0 mm 0.00 in0.0 mm
05:30 PM 60.6°F15.9°C 47.1°F8.4°C 61% 4.5 mph E7.2 kmh E 6.0 mph9.7 kmh 29.94 in1013.9 mb 0.00 in0.0 mm 0.00 in0.0 mm 0.00 in0.0 mm
05:45 PM 60.1°F15.6°C 47.0°F8.3°C 62% 2.2 mph E3.5 kmh E 6.0 mph9.7 kmh 29.95 in1014.2 mb 0.00 in0.0 mm 0.00 in0.0 mm 0.00 in0.0 mm
06:00 PM 59.5°F15.3°C 46.9°F8.3°C 63% 2.2 mph E3.5 kmh E 6.0 mph9.7 kmh 29.94 in1013.9 mb 0.00 in0.0 mm 0.00 in0.0 mm 0.00 in0.0 mm
06:15 PM 58.8°F14.9°C 46.3°F7.9°C 63% 1.6 mph ENE2.6 kmh ENE 6.0 mph9.7 kmh 29.95 in1014.2 mb 0.00 in0.0 mm 0.00 in0.0 mm 0.00 in0.0 mm
06:30 PM 58.3°F14.6°C 46.2°F7.9°C 64% 0.7 mph E1.1 kmh E 2.2 mph3.5 kmh 29.95 in1014.2 mb 0.00 in0.0 mm 0.00 in0.0 mm 0.00 in0.0 mm
06:45 PM 57.7°F14.3°C 46.1°F7.8°C 65% Calm Calm 1.6 mph2.6 kmh 29.95 in1014.2 mb 0.00 in0.0 mm 0.00 in0.0 mm 0.00 in0.0 mm
07:00 PM 56.8°F13.8°C 46.0°F7.8°C 67% Calm Calm 0.7 mph1.1 kmh 29.96 in1014.6 mb 0.00 in0.0 mm 0.00 in0.0 mm 0.00 in0.0 mm
07:15 PM 56.3°F13.5°C 45.9°F7.7°C 68% Calm Calm 1.6 mph2.6 kmh 29.96 in1014.6 mb 0.00 in0.0 mm 0.00 in0.0 mm 0.00 in0.0 mm
07:30 PM 55.9°F13.3°C 45.9°F7.7°C 69% 1.6 mph NNW2.6 kmh NNW 2.2 mph3.5 kmh 29.95 in1014.2 mb 0.00 in0.0 mm 0.00 in0.0 mm 0.00 in0.0 mm
07:45 PM 55.4°F13.0°C 45.8°F7.7°C 70% Calm Calm 2.2 mph3.5 kmh 29.96 in1014.6 mb 0.00 in0.0 mm 0.00 in0.0 mm 0.00 in0.0 mm
08:00 PM 55.0°F12.8°C 45.4°F7.4°C 70% 0.7 mph SW1.1 kmh SW 1.6 mph2.6 kmh 29.97 in1014.9 mb 0.00 in0.0 mm 0.00 in0.0 mm 0.00 in0.0 mm
08:15 PM 55.0°F12.8°C 45.4°F7.4°C 70% Calm Calm 1.6 mph2.6 kmh 29.96 in1014.6 mb 0.00 in0.0 mm 0.00 in0.0 mm 0.00 in0.0 mm
08:30 PM 54.7°F12.6°C 45.1°F7.3°C 70% 0.7 mph NW1.1 kmh NW 1.6 mph2.6 kmh 29.96 in1014.6 mb 0.00 in0.0 mm 0.00 in0.0 mm 0.00 in0.0 mm
08:45 PM 54.1°F12.3°C 44.2°F6.8°C 69% 1.6 mph WSW2.6 kmh WSW 2.2 mph3.5 kmh 29.96 in1014.6 mb 0.00 in0.0 mm 0.00 in0.0 mm 0.00 in0.0 mm
09:00 PM 54.0°F12.2°C 44.4°F6.9°C 70% Calm Calm 1.6 mph2.6 kmh 29.96 in1014.6 mb 0.00 in0.0 mm 0.00 in0.0 mm 0.00 in0.0 mm
09:15 PM 53.6°F12.0°C 44.1°F6.7°C 70% Calm Calm 1.6 mph2.6 kmh 29.96 in1014.6 mb 0.00 in0.0 mm 0.00 in0.0 mm 0.00 in0.0 mm
09:30 PM 52.9°F11.6°C 44.1°F6.7°C 72% 0.7 mph SW1.1 kmh SW 1.6 mph2.6 kmh 29.97 in1014.9 mb 0.00 in0.0 mm 0.00 in0.0 mm 0.00 in0.0 mm
09:45 PM 52.7°F11.5°C 44.3°F6.8°C 73% 0.7 mph SW1.1 kmh SW 1.6 mph2.6 kmh 29.97 in1014.9 mb 0.00 in0.0 mm 0.00 in0.0 mm 0.00 in0.0 mm
10:00 PM 52.2°F11.2°C 43.8°F6.6°C 73% 0.7 mph WSW1.1 kmh WSW 3.1 mph5.0 kmh 29.97 in1014.9 mb 0.00 in0.0 mm 0.00 in0.0 mm 0.00 in0.0 mm
10:15 PM 51.6°F10.9°C 43.6°F6.4°C 74% 0.7 mph WSW1.1 kmh WSW 2.2 mph3.5 kmh 29.97 in1014.9 mb 0.00 in0.0 mm 0.00 in0.0 mm 0.00 in0.0 mm
10:30 PM 51.3°F10.7°C 43.3°F6.3°C 74% 0.7 mph SW1.1 kmh SW 2.2 mph3.5 kmh 29.98 in1015.2 mb 0.00 in0.0 mm 0.00 in0.0 mm 0.00 in0.0 mm
10:45 PM 50.7°F10.4°C 43.1°F6.2°C 75% 0.7 mph S1.1 kmh S 3.8 mph6.1 kmh 29.98 in1015.2 mb 0.00 in0.0 mm 0.00 in0.0 mm 0.00 in0.0 mm
11:00 PM 50.2°F10.1°C 42.6°F5.9°C 75% Calm Calm 2.2 mph3.5 kmh 29.97 in1014.9 mb 0.00 in0.0 mm 0.00 in0.0 mm 0.00 in0.0 mm
11:15 PM 49.6°F9.8°C 42.0°F5.6°C 75% Calm Calm 1.6 mph2.6 kmh 29.97 in1014.9 mb 0.00 in0.0 mm 0.00 in0.0 mm 0.00 in0.0 mm
11:30 PM 49.3°F9.6°C 42.0°F5.6°C 76% 1.6 mph S2.6 kmh S 3.1 mph5.0 kmh 29.97 in1014.9 mb 0.00 in0.0 mm 0.00 in0.0 mm 0.00 in0.0 mm
11:45 PM 48.7°F9.3°C 41.5°F5.3°C 76% 1.6 mph SW2.6 kmh SW 2.2 mph3.5 kmh 29.98 in1015.2 mb 0.00 in0.0 mm 0.00 in0.0 mm 0.00 in0.0 mm